createdAt,value
2023-02-21T00:00:11.884Z,9.30
2023-02-21T00:03:22.940Z,8.70
2023-02-21T00:06:09.798Z,10.00
2023-02-21T00:08:56.694Z,9.20
2023-02-21T00:11:43.421Z,9.20
2023-02-21T00:14:30.399Z,9.60
2023-02-21T00:17:17.334Z,8.80
2023-02-21T00:20:04.413Z,9.20
2023-02-21T00:22:51.635Z,9.40
2023-02-21T00:25:38.822Z,9.30
2023-02-21T00:28:25.687Z,9.30
2023-02-21T00:31:13.085Z,9.20
2023-02-21T00:34:00.123Z,11.10
2023-02-21T00:36:46.909Z,7.30
2023-02-21T00:39:33.595Z,7.80
2023-02-21T00:42:20.367Z,8.70
2023-02-21T00:45:07.304Z,8.70
2023-02-21T00:47:54.210Z,9.70
2023-02-21T00:50:41.403Z,11.10
2023-02-21T00:53:28.308Z,8.40
2023-02-21T00:56:15.203Z,9.40
2023-02-21T00:59:02.331Z,10.50
2023-02-21T01:01:49.430Z,10.30
2023-02-21T01:04:37.667Z,9.00
2023-02-21T01:07:24.399Z,8.70
2023-02-21T01:10:11.252Z,9.90
2023-02-21T01:12:58.454Z,7.90
2023-02-21T01:15:45.440Z,9.30
2023-02-21T01:18:33.620Z,8.10
2023-02-21T01:21:23.418Z,10.20
2023-02-21T01:24:10.188Z,8.50
2023-02-21T01:26:57.444Z,8.70
2023-02-21T01:29:44.215Z,7.70
2023-02-21T01:32:31.416Z,5.60
2023-02-21T01:35:19.124Z,8.80
2023-02-21T01:38:06.191Z,8.30
2023-02-21T01:40:53.319Z,8.80
2023-02-21T01:43:44.427Z,8.50
2023-02-21T01:46:34.172Z,7.00
2023-02-21T01:49:28.416Z,11.60
2023-02-21T01:52:17.469Z,9.50
2023-02-21T01:55:08.750Z,8.00
2023-02-21T01:57:58.335Z,8.30
2023-02-21T02:00:46.650Z,8.50
2023-02-21T02:03:36.166Z,8.60
2023-02-21T02:06:27.379Z,8.60
2023-02-21T02:09:14.359Z,10.00
2023-02-21T02:12:07.362Z,7.20
2023-02-21T02:14:58.408Z,6.80
2023-02-21T02:17:51.672Z,8.30
2023-02-21T02:21:02.829Z,6.80
2023-02-21T02:23:40.265Z,9.10
2023-02-21T02:26:36.182Z,9.30
2023-02-21T02:29:07.142Z,9.00
2023-02-21T02:31:51.228Z,8.30
2023-02-21T02:34:47.552Z,7.90
2023-02-21T02:37:24.936Z,6.50
2023-02-21T02:40:06.451Z,7.40
2023-02-21T02:42:40.538Z,6.30
2023-02-21T02:45:19.048Z,5.40
2023-02-21T02:47:53.911Z,8.10
2023-02-21T02:50:24.747Z,7.80
2023-02-21T02:52:55.956Z,8.60
2023-02-21T02:55:35.613Z,6.00
2023-02-21T02:58:04.320Z,6.70
2023-02-21T03:00:36.823Z,8.60
2023-02-21T03:03:38.586Z,5.90
2023-02-21T03:06:30.034Z,7.80
2023-02-21T03:09:01.420Z,7.10
2023-02-21T03:11:31.559Z,6.10
2023-02-21T03:14:06.698Z,8.00
2023-02-21T03:16:37.696Z,6.80
2023-02-21T03:19:12.371Z,7.60
2023-02-21T03:21:48.013Z,9.00
2023-02-21T03:24:19.630Z,6.40
2023-02-21T03:26:51.998Z,6.90
2023-02-21T03:29:42.297Z,6.90
2023-02-21T03:32:19.192Z,7.50
2023-02-21T03:34:48.262Z,6.50
2023-02-21T03:37:33.971Z,8.80
2023-02-21T03:40:04.305Z,8.20
2023-02-21T03:42:33.984Z,8.70
2023-02-21T03:45:02.608Z,8.20
2023-02-21T03:47:31.825Z,6.20
2023-02-21T03:50:00.334Z,8.00
2023-02-21T03:52:28.470Z,8.80
2023-02-21T03:54:56.836Z,11.00
2023-02-21T03:57:26.224Z,7.40
2023-02-21T03:59:54.486Z,7.40
2023-02-21T04:02:22.694Z,6.00
2023-02-21T04:04:51.177Z,6.10
2023-02-21T04:07:21.628Z,7.70
2023-02-21T04:09:50.931Z,10.70
2023-02-21T04:12:29.807Z,6.50
2023-02-21T04:14:58.821Z,8.90
2023-02-21T04:17:27.190Z,9.50
2023-02-21T04:19:56.680Z,9.50
2023-02-21T04:22:26.065Z,6.50
2023-02-21T04:24:54.634Z,7.20
2023-02-21T04:27:24.659Z,7.80
2023-02-21T04:29:56.456Z,7.60
2023-02-21T04:32:24.894Z,7.20
2023-02-21T04:34:53.659Z,7.40
2023-02-21T04:37:21.810Z,6.30
2023-02-21T04:39:50.649Z,6.50
2023-02-21T04:42:19.268Z,7.70
2023-02-21T04:44:59.356Z,8.10
2023-02-21T04:47:29.350Z,7.30
2023-02-21T04:49:57.583Z,7.00
2023-02-21T04:52:25.962Z,6.20
2023-02-21T04:54:54.370Z,8.70
2023-02-21T04:57:23.009Z,10.60
2023-02-21T04:59:57.524Z,9.30
2023-02-21T05:02:26.877Z,9.20
2023-02-21T05:04:55.396Z,7.40
2023-02-21T05:07:23.585Z,8.40
2023-02-21T05:09:52.361Z,7.30
2023-02-21T05:12:20.665Z,9.20
2023-02-21T05:14:48.871Z,9.80
2023-02-21T05:17:17.064Z,6.30
2023-02-21T05:19:47.061Z,7.20
2023-02-21T05:22:20.615Z,9.80
2023-02-21T05:24:49.388Z,13.00
2023-02-21T05:27:19.932Z,7.80
2023-02-21T05:29:50.703Z,8.40
2023-02-21T05:32:21.774Z,9.60
2023-02-21T05:34:50.146Z,7.80
2023-02-21T05:37:21.396Z,8.80
2023-02-21T05:39:49.798Z,9.50
2023-02-21T05:42:19.081Z,11.30
2023-02-21T05:44:48.194Z,11.10
2023-02-21T05:47:16.592Z,12.20
2023-02-21T05:49:45.368Z,10.60
2023-02-21T05:52:17.763Z,11.40
2023-02-21T05:54:46.009Z,12.00
2023-02-21T05:57:14.408Z,17.10
2023-02-21T05:59:43.666Z,8.30
2023-02-21T06:02:12.936Z,13.20
2023-02-21T06:04:44.186Z,10.10
2023-02-21T06:07:17.261Z,7.90
2023-02-21T06:09:46.056Z,9.90
2023-02-21T06:12:19.780Z,8.20
2023-02-21T06:14:52.167Z,7.90
2023-02-21T06:17:24.914Z,11.30
2023-02-21T06:19:56.963Z,7.80
2023-02-21T06:22:27.264Z,9.10
2023-02-21T06:24:55.711Z,16.10
2023-02-21T06:27:25.592Z,11.70
2023-02-21T06:29:54.054Z,7.90
2023-02-21T06:32:23.795Z,9.90
2023-02-21T06:34:52.996Z,5.50
2023-02-21T06:37:21.449Z,8.10
2023-02-21T06:39:50.656Z,10.00
2023-02-21T06:42:25.350Z,11.00
2023-02-21T06:45:00.820Z,10.70
2023-02-21T06:47:29.440Z,8.40
2023-02-21T06:49:57.818Z,9.40
2023-02-21T06:52:26.119Z,9.40
2023-02-21T06:54:54.533Z,12.40
2023-02-21T06:57:23.491Z,11.60
2023-02-21T06:59:55.080Z,15.10
2023-02-21T07:02:23.965Z,14.50
2023-02-21T07:04:52.810Z,12.50
2023-02-21T07:07:21.172Z,9.80
2023-02-21T07:09:49.499Z,13.50
2023-02-21T07:12:17.781Z,9.50
2023-02-21T07:14:46.258Z,8.80
2023-02-21T07:17:14.528Z,9.60
2023-02-21T07:19:44.118Z,10.30
2023-02-21T07:22:12.386Z,6.70
2023-02-21T07:24:41.756Z,10.20
2023-02-21T07:27:10.443Z,9.30
2023-02-21T07:29:38.593Z,12.80
2023-02-21T07:32:06.898Z,11.20
2023-02-21T07:34:35.240Z,10.00
2023-02-21T07:37:04.221Z,9.00
2023-02-21T07:39:34.402Z,9.20
2023-02-21T07:42:03.039Z,9.50
2023-02-21T07:44:31.659Z,12.10
2023-02-21T07:47:04.174Z,12.30
2023-02-21T07:49:32.600Z,12.60
2023-02-21T07:52:01.013Z,12.70
2023-02-21T07:54:29.278Z,10.80
2023-02-21T07:56:57.559Z,25.70
2023-02-21T07:59:25.949Z,20.70
2023-02-21T08:01:55.712Z,11.80
2023-02-21T08:04:25.841Z,19.80
2023-02-21T08:07:02.530Z,9.60
2023-02-21T08:09:31.889Z,10.10
2023-02-21T08:12:02.117Z,10.70
2023-02-21T08:14:30.940Z,11.20
2023-02-21T08:17:00.372Z,12.60
2023-02-21T08:19:28.719Z,12.80
2023-02-21T08:21:56.909Z,10.60
2023-02-21T08:24:25.450Z,10.00
2023-02-21T08:26:54.195Z,11.60
2023-02-21T08:29:24.996Z,11.00
2023-02-21T08:31:53.496Z,10.70
2023-02-21T08:34:21.959Z,10.90
2023-02-21T08:36:51.103Z,10.10
2023-02-21T08:39:19.571Z,9.40
2023-02-21T08:41:52.432Z,9.70
2023-02-21T08:44:24.998Z,10.70
2023-02-21T08:46:58.743Z,9.50
2023-02-21T08:49:33.768Z,11.30
2023-02-21T08:52:02.772Z,10.70
2023-02-21T08:54:35.800Z,7.10
2023-02-21T08:57:20.942Z,7.70
2023-02-21T08:59:50.267Z,12.10
2023-02-21T09:02:28.609Z,10.80
2023-02-21T09:04:57.598Z,10.30
2023-02-21T09:07:31.425Z,8.00
2023-02-21T09:10:01.418Z,7.70
2023-02-21T09:12:29.916Z,10.10
2023-02-21T09:14:58.795Z,6.70
2023-02-21T09:17:27.490Z,10.50
2023-02-21T09:19:55.839Z,12.50
2023-02-21T09:22:25.437Z,6.40
2023-02-21T09:24:57.685Z,13.30
2023-02-21T09:27:37.431Z,11.00
2023-02-21T09:30:15.514Z,7.90
2023-02-21T09:32:44.542Z,10.30
2023-02-21T09:35:15.114Z,12.30
2023-02-21T09:37:46.026Z,11.30
2023-02-21T09:40:40.040Z,12.50
2023-02-21T09:43:21.838Z,11.70
2023-02-21T09:46:01.825Z,9.50
2023-02-21T09:48:38.580Z,14.40
2023-02-21T09:51:10.569Z,11.20
2023-02-21T09:53:56.485Z,11.30
2023-02-21T09:56:38.977Z,10.60
2023-02-21T09:59:28.601Z,9.50
2023-02-21T10:02:18.982Z,13.50
2023-02-21T10:05:39.178Z,16.70
2023-02-21T10:08:13.198Z,15.40
2023-02-21T10:10:51.750Z,11.10
2023-02-21T10:13:40.465Z,13.50
2023-02-21T10:16:13.619Z,9.70
2023-02-21T10:18:49.203Z,10.40
2023-02-21T10:21:28.461Z,7.90
2023-02-21T10:24:04.928Z,9.10
2023-02-21T10:26:38.352Z,9.40
2023-02-21T10:29:34.093Z,10.20
2023-02-21T10:32:04.614Z,7.10
2023-02-21T10:34:35.139Z,7.60
2023-02-21T10:37:26.127Z,8.80
2023-02-21T10:40:01.469Z,7.10
2023-02-21T10:42:54.777Z,7.40
2023-02-21T10:45:33.063Z,6.20
2023-02-21T10:48:13.452Z,6.90
2023-02-21T10:50:52.700Z,7.20
2023-02-21T10:53:53.528Z,8.20
2023-02-21T10:56:25.855Z,7.70
2023-02-21T10:59:05.830Z,5.60
2023-02-21T11:01:34.319Z,6.20
2023-02-21T11:04:32.954Z,10.80
2023-02-21T11:07:19.916Z,10.70
2023-02-21T11:09:59.723Z,14.30
2023-02-21T11:12:42.581Z,6.90
2023-02-21T11:15:40.782Z,7.80
2023-02-21T11:18:30.227Z,8.00
2023-02-21T11:21:14.248Z,7.50
2023-02-21T11:24:09.141Z,6.60
2023-02-21T11:27:01.108Z,8.00
2023-02-21T11:29:29.624Z,7.20
2023-02-21T11:31:58.332Z,9.30
2023-02-21T11:34:29.911Z,7.60
2023-02-21T11:37:03.327Z,11.70
2023-02-21T11:39:35.556Z,11.00
2023-02-21T11:42:25.602Z,7.60
2023-02-21T11:45:12.968Z,8.20
2023-02-21T11:47:57.840Z,9.50
2023-02-21T11:50:39.758Z,6.30
2023-02-21T11:53:33.855Z,8.90
2023-02-21T11:56:35.679Z,8.40
2023-02-21T11:59:22.415Z,7.60
2023-02-21T12:02:36.624Z,14.80
2023-02-21T12:05:26.900Z,10.60
2023-02-21T12:08:23.197Z,10.80
2023-02-21T12:11:14.623Z,27.60
2023-02-21T12:14:20.811Z,10.00
2023-02-21T12:17:02.408Z,10.20
2023-02-21T12:19:46.208Z,8.50
2023-02-21T12:22:46.533Z,8.00
2023-02-21T12:25:32.477Z,8.30
2023-02-21T12:28:22.198Z,7.60
2023-02-21T12:31:10.787Z,11.40
2023-02-21T12:34:11.442Z,8.50
2023-02-21T12:36:45.920Z,8.30
2023-02-21T12:42:03.781Z,9.60
2023-02-21T12:44:44.389Z,10.30
2023-02-21T12:47:28.805Z,10.00
2023-02-21T12:50:06.421Z,13.10
2023-02-21T12:52:58.396Z,8.80
2023-02-21T12:55:33.931Z,11.20
2023-02-21T12:58:26.249Z,16.90
2023-02-21T13:01:05.069Z,13.90
2023-02-21T13:03:50.146Z,13.40
2023-02-21T13:06:31.368Z,13.00
2023-02-21T13:08:59.892Z,18.30
2023-02-21T13:11:35.567Z,17.20
2023-02-21T13:14:10.944Z,14.90
2023-02-21T13:16:39.847Z,18.50
2023-02-21T13:19:11.673Z,16.00
2023-02-21T13:21:52.569Z,13.90
2023-02-21T13:24:58.222Z,17.20
2023-02-21T13:27:51.346Z,13.10
2023-02-21T13:30:31.644Z,11.20
2023-02-21T13:33:01.366Z,14.90
2023-02-21T13:35:36.917Z,12.30
2023-02-21T13:38:07.806Z,8.40
2023-02-21T13:40:51.119Z,13.70
2023-02-21T13:43:29.854Z,9.30
2023-02-21T13:46:22.959Z,12.20
2023-02-21T13:49:30.590Z,10.80
2023-02-21T13:52:24.956Z,11.00
2023-02-21T13:55:11.670Z,9.00
2023-02-21T13:57:58.313Z,8.90
2023-02-21T14:00:29.758Z,11.70
2023-02-21T14:03:04.090Z,17.10
2023-02-21T14:05:53.782Z,15.80
2023-02-21T14:08:34.741Z,10.70
2023-02-21T14:11:06.192Z,16.90
2023-02-21T14:13:49.175Z,13.60
2023-02-21T14:16:20.922Z,13.40
2023-02-21T14:18:57.305Z,12.70
2023-02-21T14:21:41.087Z,12.10
2023-02-21T14:24:09.284Z,12.10
2023-02-21T14:26:37.448Z,14.50
2023-02-21T14:29:08.360Z,14.20
2023-02-21T14:31:46.006Z,16.00
2023-02-21T14:34:18.017Z,10.70
2023-02-21T14:36:48.882Z,13.10
2023-02-21T14:39:18.348Z,10.40
2023-02-21T14:42:10.532Z,11.70
2023-02-21T14:44:44.688Z,13.00
2023-02-21T14:47:40.976Z,11.70
2023-02-21T14:50:24.725Z,9.30
2023-02-21T14:52:52.872Z,11.40
2023-02-21T14:55:56.488Z,12.20
2023-02-21T14:58:24.584Z,10.10
2023-02-21T15:01:16.973Z,17.40
2023-02-21T15:03:51.992Z,10.40
2023-02-21T15:06:26.820Z,9.20
2023-02-21T15:08:55.278Z,9.20
2023-02-21T15:11:38.403Z,12.90
2023-02-21T15:14:14.971Z,10.80
2023-02-21T15:16:47.693Z,12.90
2023-02-21T15:19:34.751Z,16.00
2023-02-21T15:22:16.877Z,11.40
2023-02-21T15:24:57.524Z,8.70
2023-02-21T15:27:26.151Z,11.00
2023-02-21T15:30:30.197Z,12.30
2023-02-21T15:33:19.452Z,11.30
2023-02-21T15:36:01.774Z,14.60
2023-02-21T15:38:32.308Z,12.90
2023-02-21T15:41:07.432Z,12.10
2023-02-21T15:43:53.627Z,11.60
2023-02-21T15:46:31.637Z,16.80
2023-02-21T15:49:03.229Z,14.60
2023-02-21T15:51:33.534Z,13.30
2023-02-21T15:54:33.321Z,21.20
2023-02-21T15:57:01.588Z,26.50
2023-02-21T15:59:30.900Z,33.70
2023-02-21T16:02:11.315Z,34.00
2023-02-21T16:04:45.888Z,17.80
2023-02-21T16:07:43.900Z,20.80
2023-02-21T16:10:14.991Z,14.80
2023-02-21T16:12:47.412Z,24.60
2023-02-21T16:15:18.408Z,22.30
2023-02-21T16:17:53.752Z,21.60
2023-02-21T16:20:29.902Z,42.20
2023-02-21T16:23:20.321Z,39.30
2023-02-21T16:26:03.941Z,34.30
2023-02-21T16:28:32.334Z,35.50
2023-02-21T16:31:03.021Z,24.90
2023-02-21T16:33:32.146Z,18.20
2023-02-21T16:36:04.827Z,18.70
2023-02-21T16:38:33.433Z,17.70
2023-02-21T16:41:01.697Z,19.40
2023-02-21T16:43:30.059Z,19.10
2023-02-21T16:45:59.159Z,20.20
2023-02-21T16:48:33.354Z,26.20
2023-02-21T16:51:09.938Z,23.00
2023-02-21T16:53:38.058Z,12.80
2023-02-21T16:56:07.039Z,13.90
2023-02-21T16:58:38.724Z,14.80
2023-02-21T17:01:24.341Z,12.20
2023-02-21T17:03:53.981Z,14.40
2023-02-21T17:06:25.219Z,17.50
2023-02-21T17:08:53.770Z,17.50
2023-02-21T17:11:22.038Z,12.40
2023-02-21T17:13:50.189Z,15.10
2023-02-21T17:16:19.314Z,15.90
2023-02-21T17:18:47.810Z,15.70
2023-02-21T17:21:16.288Z,17.00
2023-02-21T17:23:44.792Z,16.50
2023-02-21T17:26:13.285Z,15.10
2023-02-21T17:28:41.514Z,18.60
2023-02-21T17:31:09.730Z,16.30
2023-02-21T17:33:38.812Z,15.50
2023-02-21T17:36:07.634Z,18.20
2023-02-21T17:38:35.832Z,15.90
2023-02-21T17:41:04.671Z,16.60
2023-02-21T17:43:32.970Z,16.00
2023-02-21T17:46:01.221Z,20.90
2023-02-21T17:48:29.437Z,19.20
2023-02-21T17:50:57.771Z,18.60
2023-02-21T17:53:28.361Z,18.40
2023-02-21T17:56:00.120Z,17.40
2023-02-21T17:58:32.695Z,16.10
2023-02-21T18:01:01.113Z,12.40
2023-02-21T18:03:29.565Z,12.10
2023-02-21T18:05:59.881Z,14.70
2023-02-21T18:08:28.427Z,11.10
2023-02-21T18:10:56.612Z,16.20
2023-02-21T18:13:25.510Z,11.90
2023-02-21T18:15:53.717Z,12.00
2023-02-21T18:18:21.980Z,13.40
2023-02-21T18:20:50.229Z,11.60
2023-02-21T18:23:19.015Z,11.40
2023-02-21T18:25:47.138Z,13.20
2023-02-21T18:28:15.766Z,16.40
2023-02-21T18:30:44.265Z,12.50
2023-02-21T18:33:13.022Z,12.20
2023-02-21T18:35:41.441Z,10.70
2023-02-21T18:38:09.794Z,11.50
2023-02-21T18:40:45.161Z,11.50
2023-02-21T18:43:27.187Z,10.50
2023-02-21T18:45:57.966Z,8.80
2023-02-21T18:48:27.216Z,9.60
2023-02-21T18:50:55.510Z,11.90
2023-02-21T18:53:23.617Z,13.80
2023-02-21T18:55:51.862Z,11.90
2023-02-21T18:58:19.987Z,12.70
2023-02-21T19:00:49.620Z,12.30
2023-02-21T19:03:19.076Z,11.90
2023-02-21T19:05:48.348Z,18.20
2023-02-21T19:08:18.860Z,12.90
2023-02-21T19:10:48.750Z,12.30
2023-02-21T19:13:16.990Z,12.40
2023-02-21T19:15:45.436Z,9.70
2023-02-21T19:18:13.636Z,10.70
2023-02-21T19:20:43.855Z,8.10
2023-02-21T19:23:12.928Z,9.10
2023-02-21T19:25:41.157Z,11.30
2023-02-21T19:28:09.495Z,10.70
2023-02-21T19:30:37.786Z,11.00
2023-02-21T19:33:09.617Z,10.40
2023-02-21T19:35:39.239Z,9.50
2023-02-21T19:38:08.813Z,9.70
2023-02-21T19:40:39.144Z,9.40
2023-02-21T19:43:07.502Z,8.30
2023-02-21T19:45:35.979Z,12.40
2023-02-21T19:48:05.546Z,12.30
2023-02-21T19:50:35.288Z,14.90
2023-02-21T19:53:05.889Z,19.10
2023-02-21T19:55:34.136Z,17.70
2023-02-21T19:58:07.082Z,15.30
2023-02-21T20:00:37.010Z,14.40
2023-02-21T20:03:05.437Z,15.10
2023-02-21T20:05:33.889Z,15.40
2023-02-21T20:08:02.565Z,16.80
2023-02-21T20:10:31.289Z,16.60
2023-02-21T20:12:59.571Z,15.70
2023-02-21T20:15:27.770Z,17.70
2023-02-21T20:17:56.101Z,14.60
2023-02-21T20:20:24.308Z,16.70
2023-02-21T20:22:52.535Z,13.60
2023-02-21T20:25:22.359Z,15.40
2023-02-21T20:27:50.511Z,17.80
2023-02-21T20:30:18.771Z,15.20
2023-02-21T20:32:46.922Z,15.90
2023-02-21T20:35:15.245Z,13.50
2023-02-21T20:37:43.430Z,15.70
2023-02-21T20:40:15.456Z,15.20
2023-02-21T20:42:43.652Z,14.10
2023-02-21T20:45:12.188Z,13.80
2023-02-21T20:47:40.374Z,12.60
2023-02-21T20:50:08.885Z,13.40
2023-02-21T20:52:38.582Z,16.10
2023-02-21T20:55:09.546Z,13.40
2023-02-21T20:57:37.781Z,13.50
2023-02-21T21:00:09.453Z,11.80
2023-02-21T21:02:39.058Z,10.70
2023-02-21T21:05:13.953Z,13.40
2023-02-21T21:07:44.128Z,13.10
2023-02-21T21:10:15.791Z,12.90
2023-02-21T21:12:44.511Z,12.30
2023-02-21T21:15:14.415Z,13.50
2023-02-21T21:17:43.288Z,14.20
2023-02-21T21:20:14.584Z,13.30
2023-02-21T21:22:42.910Z,13.70
2023-02-21T21:25:11.434Z,13.10
2023-02-21T21:27:44.538Z,12.00
2023-02-21T21:30:18.239Z,12.90
2023-02-21T21:32:46.756Z,10.90
2023-02-21T21:35:17.253Z,13.50
2023-02-21T21:37:46.277Z,14.30
2023-02-21T21:40:17.542Z,17.80
2023-02-21T21:42:49.117Z,15.20
2023-02-21T21:45:20.258Z,18.10
2023-02-21T21:47:49.985Z,16.60
2023-02-21T21:50:21.319Z,19.20
2023-02-21T21:52:52.985Z,19.40
2023-02-21T21:55:25.586Z,18.20
2023-02-21T21:57:54.935Z,15.90
2023-02-21T22:00:27.096Z,11.30
2023-02-21T22:02:59.868Z,12.10
2023-02-21T22:05:30.698Z,11.20
2023-02-21T22:07:59.313Z,10.30
2023-02-21T22:10:28.761Z,11.10
2023-02-21T22:13:00.033Z,11.40
2023-02-21T22:15:29.948Z,10.10
2023-02-21T22:18:02.112Z,10.60
2023-02-21T22:20:36.130Z,11.60
2023-02-21T22:23:06.088Z,12.50
2023-02-21T22:25:37.572Z,12.40
2023-02-21T22:28:09.734Z,11.70
2023-02-21T22:30:38.619Z,14.00
2023-02-21T22:33:08.774Z,12.10
2023-02-21T22:35:37.433Z,13.90
2023-02-21T22:38:07.763Z,12.70
2023-02-21T22:40:35.901Z,11.60
2023-02-21T22:43:06.105Z,11.20
2023-02-21T22:45:35.861Z,12.00
2023-02-21T22:48:06.670Z,10.80
2023-02-21T22:50:37.511Z,12.60
2023-02-21T22:53:08.450Z,10.10
2023-02-21T22:55:37.847Z,12.00
2023-02-21T22:58:09.642Z,11.80
2023-02-21T23:00:38.266Z,11.40
2023-02-21T23:03:13.271Z,10.50
2023-02-21T23:05:51.859Z,10.50
2023-02-21T23:08:22.915Z,9.50
2023-02-21T23:10:51.739Z,9.50
2023-02-21T23:13:24.998Z,9.00
2023-02-21T23:15:55.951Z,8.30
2023-02-21T23:18:26.227Z,10.90
2023-02-21T23:20:58.115Z,11.10
2023-02-21T23:23:28.901Z,9.00
2023-02-21T23:25:59.246Z,9.10
2023-02-21T23:28:30.517Z,9.30
2023-02-21T23:30:58.764Z,10.50
2023-02-21T23:33:30.266Z,12.00
2023-02-21T23:35:58.696Z,13.20
2023-02-21T23:38:28.413Z,11.00
2023-02-21T23:40:59.117Z,10.70
2023-02-21T23:43:30.078Z,8.90
2023-02-21T23:46:00.414Z,12.10
2023-02-21T23:48:32.760Z,12.50
2023-02-21T23:51:00.971Z,12.00
2023-02-21T23:53:31.929Z,10.10
2023-02-21T23:56:01.005Z,12.20
2023-02-21T23:58:33.948Z,12.80
